createdAt,value
2019-05-07T00:01:56.867Z,99168.65
2019-05-07T00:05:12.047Z,99157.26
2019-05-07T00:08:25.828Z,99158.66
2019-05-07T00:11:39.753Z,99163.32
2019-05-07T00:15:00.941Z,99150.36
2019-05-07T00:18:08.974Z,99154.94
2019-05-07T00:21:23.464Z,99156.66
2019-05-07T00:24:37.072Z,99153.05
2019-05-07T00:27:52.334Z,99158.23
2019-05-07T00:31:06.070Z,99152.98
2019-05-07T00:34:22.089Z,99155.09
2019-05-07T00:37:43.159Z,99149.23
2019-05-07T00:41:16.242Z,99152.76
2019-05-07T00:44:32.693Z,99150.34
2019-05-07T00:47:46.143Z,99143.36
2019-05-07T00:51:18.061Z,99139.70
2019-05-07T00:54:32.545Z,99135.83
2019-05-07T00:57:46.104Z,99129.12
2019-05-07T01:00:59.601Z,99133.11
2019-05-07T01:04:13.217Z,99132.44
2019-05-07T01:07:26.819Z,99142.19
2019-05-07T01:10:41.973Z,99140.53
2019-05-07T01:13:55.559Z,99131.02
2019-05-07T01:17:09.440Z,99131.53
2019-05-07T01:20:22.947Z,99130.16
2019-05-07T01:23:36.638Z,99127.83
2019-05-07T01:26:50.345Z,99127.20
2019-05-07T01:30:04.906Z,99127.53
2019-05-07T01:33:44.516Z,99125.44
2019-05-07T01:36:58.325Z,99122.80
2019-05-07T01:40:12.326Z,99121.23
2019-05-07T01:43:25.926Z,99121.29
2019-05-07T01:46:39.421Z,99113.59
2019-05-07T01:49:55.114Z,99121.02
2019-05-07T01:53:08.681Z,99122.19
2019-05-07T01:56:22.982Z,99116.63
2019-05-07T01:59:36.566Z,99119.63
2019-05-07T02:02:56.001Z,99115.81
2019-05-07T02:06:32.792Z,99119.56
2019-05-07T02:10:11.989Z,99124.15
2019-05-07T02:13:25.544Z,99123.98
2019-05-07T02:16:39.416Z,99121.60
2019-05-07T02:19:52.909Z,99118.73
2019-05-07T02:23:06.480Z,99122.25
2019-05-07T02:26:22.378Z,99120.69
2019-05-07T02:29:38.114Z,99123.67
2019-05-07T02:32:54.026Z,99126.98
2019-05-07T02:36:06.963Z,99123.59
2019-05-07T02:39:27.363Z,99127.84
2019-05-07T02:42:44.073Z,99124.58
2019-05-07T02:46:26.471Z,99125.89
2019-05-07T02:49:43.814Z,99130.02
2019-05-07T02:53:04.382Z,99131.17
2019-05-07T02:56:23.538Z,99132.80
2019-05-07T02:59:36.782Z,99130.80
2019-05-07T03:02:52.975Z,99139.03
2019-05-07T03:06:06.153Z,99132.02
2019-05-07T03:09:22.606Z,99133.84
2019-05-07T03:12:35.115Z,99133.08
2019-05-07T03:15:48.735Z,99134.78
2019-05-07T03:19:04.117Z,99129.47
2019-05-07T03:22:17.819Z,99124.59
2019-05-07T03:25:53.807Z,99122.27
2019-05-07T03:29:13.094Z,99125.48
2019-05-07T03:32:38.190Z,99125.27
2019-05-07T03:35:56.015Z,99125.27
2019-05-07T03:39:09.353Z,99113.10
2019-05-07T03:42:23.635Z,99116.37
2019-05-07T03:45:57.153Z,99114.00
2019-05-07T03:49:26.144Z,99120.28
2019-05-07T03:52:42.632Z,99118.80
2019-05-07T03:55:55.689Z,99112.34
2019-05-07T03:59:13.038Z,99107.20
2019-05-07T04:02:26.685Z,99114.75
2019-05-07T04:05:43.028Z,99118.95
2019-05-07T04:08:55.685Z,99118.80
2019-05-07T04:12:09.295Z,99120.88
2019-05-07T04:15:23.523Z,99124.48
2019-05-07T04:18:37.534Z,99123.67
2019-05-07T04:21:53.404Z,99123.63
2019-05-07T04:25:24.714Z,99122.94
2019-05-07T04:29:05.543Z,99126.41
2019-05-07T04:32:23.171Z,99120.86
2019-05-07T04:35:43.375Z,99120.19
2019-05-07T04:38:57.121Z,99119.84
2019-05-07T04:42:13.251Z,99125.36
2019-05-07T04:45:26.335Z,99128.06
2019-05-07T04:48:39.843Z,99133.23
2019-05-07T04:52:04.558Z,99122.39
2019-05-07T04:55:18.151Z,99123.36
2019-05-07T04:58:33.842Z,99121.89
2019-05-07T05:02:09.373Z,99114.99
2019-05-07T05:05:24.061Z,99111.77
2019-05-07T05:08:37.510Z,99110.91
2019-05-07T05:11:53.058Z,99107.76
2019-05-07T05:16:42.621Z,99107.09
2019-05-07T05:19:56.502Z,99108.94
2019-05-07T05:23:17.908Z,99116.97
2019-05-07T05:26:32.483Z,99113.08
2019-05-07T05:29:46.198Z,99113.86
2019-05-07T05:33:02.207Z,99109.58
2019-05-07T05:36:16.927Z,99110.23
2019-05-07T05:39:32.038Z,99106.34
2019-05-07T05:42:52.797Z,99106.98
2019-05-07T05:46:06.905Z,99106.91
2019-05-07T05:49:22.789Z,99103.41
2019-05-07T05:52:43.441Z,99099.93
2019-05-07T05:55:59.433Z,99098.82
2019-05-07T05:59:44.985Z,99101.11
2019-05-07T06:02:53.945Z,99100.16
2019-05-07T06:06:14.340Z,99101.86
2019-05-07T06:09:38.981Z,99096.88
2019-05-07T06:13:12.438Z,99093.11
2019-05-07T06:16:32.737Z,99089.64
2019-05-07T06:19:51.861Z,99094.30
2019-05-07T06:23:33.086Z,99100.70
2019-05-07T06:26:46.701Z,99099.02
2019-05-07T06:30:02.870Z,99102.28
2019-05-07T06:33:15.793Z,99100.88
2019-05-07T06:36:32.860Z,99097.86
2019-05-07T06:40:08.215Z,99097.11
2019-05-07T06:43:44.627Z,99085.71
2019-05-07T06:46:58.472Z,99080.96
2019-05-07T06:50:12.610Z,99083.91
2019-05-07T06:53:28.073Z,99080.41
2019-05-07T06:56:42.170Z,99078.45
2019-05-07T06:59:59.725Z,99080.11
2019-05-07T07:03:35.955Z,99076.72
2019-05-07T07:07:08.056Z,99064.82
2019-05-07T07:10:32.347Z,99073.72
2019-05-07T07:13:46.177Z,99073.08
2019-05-07T07:17:02.184Z,99067.04
2019-05-07T07:20:15.685Z,99067.43
2019-05-07T07:23:29.573Z,99063.28
2019-05-07T07:26:43.623Z,99062.34
2019-05-07T07:30:03.820Z,99065.16
2019-05-07T07:33:18.123Z,99064.91
2019-05-07T07:36:36.239Z,99059.64
2019-05-07T07:39:52.468Z,99057.54
2019-05-07T07:43:07.145Z,99055.48
2019-05-07T07:46:22.174Z,99055.03
2019-05-07T07:49:36.022Z,99056.31
2019-05-07T07:52:49.845Z,99052.27
2019-05-07T07:56:48.289Z,99056.78
2019-05-07T07:59:56.950Z,99052.66
2019-05-07T08:03:13.237Z,99050.62
2019-05-07T08:06:28.539Z,99047.89
2019-05-07T08:09:42.768Z,99044.64
2019-05-07T08:12:56.839Z,99052.40
2019-05-07T08:16:12.794Z,99044.62
2019-05-07T08:19:26.053Z,99042.36
2019-05-07T08:22:39.684Z,99046.27
2019-05-07T08:25:53.197Z,99042.77
2019-05-07T08:29:06.690Z,99045.27
2019-05-07T08:32:27.528Z,99045.73
2019-05-07T08:36:02.687Z,99040.00
2019-05-07T08:39:16.518Z,99042.70
2019-05-07T08:42:32.057Z,99033.36
2019-05-07T08:45:54.929Z,99033.46
2019-05-07T08:49:09.347Z,99023.16
2019-05-07T08:52:26.155Z,99012.72
2019-05-07T08:55:39.472Z,99016.91
2019-05-07T08:58:53.194Z,99018.34
2019-05-07T09:02:06.906Z,99017.20
2019-05-07T09:05:22.097Z,99011.27
2019-05-07T09:08:36.310Z,99012.84
2019-05-07T09:11:51.857Z,99009.45
2019-05-07T09:15:06.811Z,99011.03
2019-05-07T09:18:22.836Z,99009.38
2019-05-07T09:21:38.063Z,99011.75
2019-05-07T09:24:52.673Z,99002.41
2019-05-07T09:28:06.763Z,98996.59
2019-05-07T09:31:32.223Z,98990.84
2019-05-07T09:34:46.626Z,98990.73
2019-05-07T09:38:00.122Z,98984.27
2019-05-07T09:41:25.823Z,98982.02
2019-05-07T09:44:39.703Z,98981.52
2019-05-07T09:47:53.410Z,98979.49
2019-05-07T09:51:07.210Z,98974.32
2019-05-07T09:54:22.984Z,98973.11
2019-05-07T09:57:36.629Z,98966.84
2019-05-07T10:00:50.345Z,98967.45
2019-05-07T10:04:04.260Z,98966.25
2019-05-07T10:07:18.202Z,98976.52
2019-05-07T10:10:32.910Z,98970.67
2019-05-07T10:13:58.096Z,98969.78
2019-05-07T10:17:17.933Z,98964.10
2019-05-07T10:20:32.799Z,98959.52
2019-05-07T10:23:46.691Z,98957.41
2019-05-07T10:27:02.258Z,98953.62
2019-05-07T10:30:16.196Z,98948.84
2019-05-07T10:33:31.790Z,98949.32
2019-05-07T10:36:45.553Z,98943.03
2019-05-07T10:39:59.578Z,98941.76
2019-05-07T10:43:13.270Z,98942.60
2019-05-07T10:46:45.782Z,98938.72
2019-05-07T10:50:17.613Z,98932.69
2019-05-07T10:53:32.079Z,98927.15
2019-05-07T10:56:45.773Z,98927.47
2019-05-07T10:59:59.554Z,98917.81
2019-05-07T11:03:13.175Z,98928.64
2019-05-07T11:06:27.132Z,98918.87
2019-05-07T11:09:42.038Z,98916.73
2019-05-07T11:12:56.161Z,98909.92
2019-05-07T11:16:12.673Z,98906.53
2019-05-07T11:19:26.278Z,98900.44
2019-05-07T11:22:40.036Z,98897.17
2019-05-07T11:25:53.744Z,98895.46
2019-05-07T11:29:07.609Z,98896.48
2019-05-07T11:32:21.631Z,98894.02
2019-05-07T11:35:35.646Z,98889.86
2019-05-07T11:38:49.494Z,98881.98
2019-05-07T11:42:26.208Z,98878.08
2019-05-07T11:45:54.021Z,98876.36
2019-05-07T11:49:17.160Z,98871.18
2019-05-07T11:52:35.869Z,98872.16
2019-05-07T11:55:49.950Z,98860.28
2019-05-07T11:59:04.275Z,98853.80
2019-05-07T12:02:18.007Z,98853.17
2019-05-07T12:05:33.253Z,98842.48
2019-05-07T12:08:51.850Z,98842.33
2019-05-07T12:12:02.649Z,98839.58
2019-05-07T12:16:36.042Z,98831.31
2019-05-07T12:19:49.978Z,98827.60
2019-05-07T12:23:03.885Z,98832.11
2019-05-07T12:26:17.485Z,98827.61
2019-05-07T12:29:32.228Z,98825.57
2019-05-07T12:32:54.422Z,98831.14
2019-05-07T12:36:09.646Z,98825.13
2019-05-07T12:39:23.297Z,98821.23
2019-05-07T12:42:37.498Z,98826.15
2019-05-07T12:45:52.511Z,98823.19
2019-05-07T12:49:06.349Z,98814.05
2019-05-07T12:52:34.959Z,98809.24
2019-05-07T12:55:54.645Z,98807.21
2019-05-07T12:59:08.876Z,98805.98
2019-05-07T13:02:43.583Z,98798.14
2019-05-07T13:05:56.025Z,98797.95
2019-05-07T13:09:09.661Z,98794.19
2019-05-07T13:12:23.310Z,98789.36
2019-05-07T13:15:37.016Z,98784.14
2019-05-07T13:18:52.466Z,98789.23
2019-05-07T13:22:06.138Z,98784.32
2019-05-07T13:25:21.605Z,98785.80
2019-05-07T13:28:36.034Z,98787.27
2019-05-07T13:31:54.339Z,98788.86
2019-05-07T13:35:08.489Z,98780.31
2019-05-07T13:38:44.681Z,98776.86
2019-05-07T13:42:04.286Z,98771.83
2019-05-07T13:45:41.687Z,98761.63
2019-05-07T13:48:57.187Z,98757.49
2019-05-07T13:52:11.824Z,98752.78
2019-05-07T13:55:25.433Z,98754.88
2019-05-07T13:58:39.155Z,98745.98
2019-05-07T14:02:06.257Z,98743.24
2019-05-07T14:05:21.761Z,98743.05
2019-05-07T14:08:38.066Z,98739.52
2019-05-07T14:11:52.864Z,98740.23
2019-05-07T14:15:06.869Z,98732.56
2019-05-07T14:18:23.229Z,98729.29
2019-05-07T14:21:36.247Z,98719.98
2019-05-07T14:24:50.366Z,98727.14
2019-05-07T14:28:04.212Z,98728.94
2019-05-07T14:31:17.918Z,98720.22
2019-05-07T14:34:54.101Z,98726.67
2019-05-07T14:38:13.886Z,98722.31
2019-05-07T14:41:27.686Z,98722.55
2019-05-07T14:44:48.364Z,98714.50
2019-05-07T14:48:02.947Z,98707.00
2019-05-07T14:51:17.149Z,98711.30
2019-05-07T14:54:32.254Z,98704.97
2019-05-07T14:57:46.289Z,98699.02
2019-05-07T15:01:02.268Z,98698.07
2019-05-07T15:04:15.679Z,98693.52
2019-05-07T15:07:29.289Z,98694.31
2019-05-07T15:10:43.338Z,98692.69
2019-05-07T15:13:57.364Z,98685.70
2019-05-07T15:17:24.275Z,98680.94
2019-05-07T15:20:38.299Z,98676.97
2019-05-07T15:23:53.994Z,98677.03
2019-05-07T15:27:08.285Z,98675.41
2019-05-07T15:30:23.412Z,98669.74
2019-05-07T15:33:37.020Z,98669.57
2019-05-07T15:36:52.608Z,98665.19
2019-05-07T15:40:07.154Z,98659.98
2019-05-07T15:43:21.065Z,98664.28
2019-05-07T15:46:34.758Z,98654.10
2019-05-07T15:49:48.260Z,98649.23
2019-05-07T15:53:13.994Z,98648.70
2019-05-07T15:56:27.506Z,98647.41
2019-05-07T15:59:41.808Z,98647.95
2019-05-07T16:03:06.281Z,98637.03
2019-05-07T16:06:22.002Z,98637.27
2019-05-07T16:09:44.435Z,98638.98
2019-05-07T16:12:58.164Z,98628.34
2019-05-07T16:16:12.108Z,98636.59
2019-05-07T16:19:27.289Z,98626.28
2019-05-07T16:22:44.520Z,98615.69
2019-05-07T16:25:58.197Z,98618.24
2019-05-07T16:29:13.275Z,98613.73
2019-05-07T16:32:27.039Z,98598.64
2019-05-07T16:35:42.552Z,98594.86
2019-05-07T16:38:56.194Z,98591.23
2019-05-07T16:42:09.948Z,98599.55
2019-05-07T16:45:23.590Z,98595.50
2019-05-07T16:48:37.472Z,98592.88
2019-05-07T16:51:52.462Z,98591.08
2019-05-07T16:55:06.533Z,98593.16
2019-05-07T16:58:26.370Z,98585.66
2019-05-07T17:01:40.021Z,98584.11
2019-05-07T17:05:13.078Z,98581.30
2019-05-07T17:08:31.866Z,98585.73
2019-05-07T17:11:45.854Z,98584.05
2019-05-07T17:14:59.682Z,98584.47
2019-05-07T17:18:13.192Z,98573.17
2019-05-07T17:21:26.715Z,98571.20
2019-05-07T17:24:42.255Z,98566.56
2019-05-07T17:27:55.853Z,98568.14
2019-05-07T17:31:09.559Z,98575.72
2019-05-07T17:34:23.102Z,98573.55
2019-05-07T17:37:36.626Z,98574.44
2019-05-07T17:40:52.178Z,98565.77
2019-05-07T17:44:06.153Z,98568.97
2019-05-07T17:47:21.838Z,98568.55
2019-05-07T17:51:04.323Z,98558.11
2019-05-07T17:54:17.998Z,98551.95
2019-05-07T17:57:33.482Z,98553.72
2019-05-07T18:00:49.317Z,98552.40
2019-05-07T18:04:03.127Z,98555.53
2019-05-07T18:07:16.656Z,98554.86
2019-05-07T18:10:31.965Z,98559.31
2019-05-07T18:13:45.874Z,98552.43
2019-05-07T18:17:19.048Z,98559.55
2019-05-07T18:20:32.910Z,98565.11
2019-05-07T18:23:46.451Z,98573.75
2019-05-07T18:27:01.911Z,98574.63
2019-05-07T18:30:16.619Z,98572.99
2019-05-07T18:33:52.471Z,98571.02
2019-05-07T18:37:06.243Z,98565.78
2019-05-07T18:40:20.592Z,98582.61
2019-05-07T18:43:34.186Z,98580.70
2019-05-07T18:46:47.815Z,98576.70
2019-05-07T18:50:02.834Z,98583.36
2019-05-07T18:53:16.561Z,98581.61
2019-05-07T18:56:30.159Z,98582.05
2019-05-07T18:59:43.654Z,98575.83
2019-05-07T19:02:57.262Z,98574.52
2019-05-07T19:06:13.147Z,98566.86
2019-05-07T19:09:26.900Z,98577.27
2019-05-07T19:12:42.060Z,98577.16
2019-05-07T19:15:56.612Z,98582.60
2019-05-07T19:19:12.321Z,98590.55
2019-05-07T19:22:25.892Z,98588.29
2019-05-07T19:25:41.900Z,98590.87
2019-05-07T19:28:55.434Z,98593.65
2019-05-07T19:32:12.102Z,98590.73
2019-05-07T19:35:25.637Z,98583.63
2019-05-07T19:38:39.231Z,98580.36
2019-05-07T19:41:53.163Z,98575.81
2019-05-07T19:45:06.861Z,98580.45
2019-05-07T19:48:20.457Z,98580.41
2019-05-07T19:51:33.957Z,98583.63
2019-05-07T19:54:58.745Z,98590.44
2019-05-07T19:58:05.285Z,98592.23
2019-05-07T20:01:27.042Z,98583.80
2019-05-07T20:04:42.647Z,98591.27
2019-05-07T20:07:59.587Z,98585.40
2019-05-07T20:11:17.684Z,98582.33
2019-05-07T20:14:33.110Z,98578.52
2019-05-07T20:17:46.865Z,98582.11
2019-05-07T20:21:02.559Z,98571.66
2019-05-07T20:24:15.985Z,98570.36
2019-05-07T20:27:29.493Z,98560.80
2019-05-07T20:30:43.340Z,98558.75
2019-05-07T20:33:57.083Z,98551.36
2019-05-07T20:37:12.722Z,98546.38
2019-05-07T20:40:26.250Z,98545.84
2019-05-07T20:43:39.756Z,98535.63
2019-05-07T20:46:53.764Z,98527.20
2019-05-07T20:50:07.601Z,98527.70
2019-05-07T20:53:42.338Z,98525.28
2019-05-07T20:57:02.250Z,98520.81
2019-05-07T21:00:24.008Z,98520.56
2019-05-07T21:03:37.502Z,98515.35
2019-05-07T21:06:52.533Z,98524.89
2019-05-07T21:10:06.580Z,98523.37
2019-05-07T21:16:35.034Z,98524.39
2019-05-07T21:19:48.627Z,98516.74
2019-05-07T21:23:02.749Z,98511.64
2019-05-07T21:26:16.267Z,98512.77
2019-05-07T21:29:32.465Z,98508.58
2019-05-07T21:32:45.545Z,98502.55
2019-05-07T21:35:59.155Z,98509.08
2019-05-07T21:39:13.197Z,98507.78
2019-05-07T21:42:26.796Z,98505.25
2019-05-07T21:45:42.325Z,98500.14
2019-05-07T21:48:55.962Z,98502.56
2019-05-07T21:52:09.437Z,98505.50
2019-05-07T21:55:32.466Z,98500.51
2019-05-07T21:58:54.105Z,98493.77
2019-05-07T22:02:18.425Z,98494.02
2019-05-07T22:05:31.949Z,98485.45
2019-05-07T22:08:45.652Z,98482.89
2019-05-07T22:11:59.238Z,98476.63
2019-05-07T22:15:13.100Z,98470.00
2019-05-07T22:18:26.569Z,98468.08
2019-05-07T22:21:40.107Z,98466.27
2019-05-07T22:24:53.589Z,98461.91
2019-05-07T22:28:07.461Z,98452.59
2019-05-07T22:31:44.184Z,98450.92
2019-05-07T22:35:19.295Z,98446.05
2019-05-07T22:38:32.895Z,98441.54
2019-05-07T22:41:46.618Z,98425.99
2019-05-07T22:45:02.623Z,98418.59
2019-05-07T22:48:15.996Z,98407.90
2019-05-07T22:51:29.476Z,98405.59
2019-05-07T22:54:43.082Z,98404.55
2019-05-07T22:58:04.728Z,98400.09
2019-05-07T23:01:18.328Z,98400.44
2019-05-07T23:04:32.656Z,98392.98
2019-05-07T23:07:46.189Z,98391.70
2019-05-07T23:10:59.690Z,98388.90
2019-05-07T23:14:13.546Z,98393.19
2019-05-07T23:17:27.321Z,98386.30
2019-05-07T23:20:42.676Z,98386.02
2019-05-07T23:23:56.492Z,98384.98
2019-05-07T23:30:42.119Z,98388.46
2019-05-07T23:33:55.642Z,98390.91
2019-05-07T23:37:09.133Z,98387.73
2019-05-07T23:40:30.452Z,98389.54
2019-05-07T23:44:03.615Z,98387.59
2019-05-07T23:47:17.213Z,98381.86
2019-05-07T23:50:32.394Z,98380.80
2019-05-07T23:53:46.398Z,98370.80
2019-05-07T23:57:08.757Z,98371.30
